createdAt,value
2023-07-23T00:00:15.584Z,64.61
2023-07-23T00:03:03.592Z,64.44
2023-07-23T00:05:31.504Z,64.48
2023-07-23T00:08:00.715Z,64.26
2023-07-23T00:10:28.688Z,64.83
2023-07-23T00:12:56.679Z,65.14
2023-07-23T00:15:24.539Z,65.46
2023-07-23T00:18:03.443Z,65.28
2023-07-23T00:20:31.481Z,65.05
2023-07-23T00:22:59.419Z,65.26
2023-07-23T00:25:27.329Z,65.32
2023-07-23T00:27:55.210Z,65.87
2023-07-23T00:30:23.274Z,66.06
2023-07-23T00:32:51.372Z,65.71
2023-07-23T00:35:21.363Z,65.46
2023-07-23T00:37:49.306Z,65.22
2023-07-23T00:40:17.342Z,65.20
2023-07-23T00:42:45.590Z,65.74
2023-07-23T00:45:13.498Z,65.93
2023-07-23T00:47:43.915Z,66.15
2023-07-23T00:50:18.227Z,65.89
2023-07-23T00:52:46.367Z,65.72
2023-07-23T00:55:14.342Z,66.13
2023-07-23T00:57:42.318Z,66.37
2023-07-23T01:00:12.053Z,66.69
2023-07-23T01:02:40.057Z,66.64
2023-07-23T01:05:08.834Z,66.59
2023-07-23T01:07:37.679Z,66.79
2023-07-23T01:10:06.641Z,66.60
2023-07-23T01:12:34.944Z,66.72
2023-07-23T01:15:06.022Z,66.56
2023-07-23T01:17:42.544Z,66.57
2023-07-23T01:20:10.690Z,66.62
2023-07-23T01:22:38.970Z,66.67
2023-07-23T01:25:07.238Z,66.77
2023-07-23T01:27:36.114Z,66.73
2023-07-23T01:30:07.922Z,66.81
2023-07-23T01:32:42.036Z,66.79
2023-07-23T01:35:15.467Z,67.00
2023-07-23T01:37:45.785Z,67.14
2023-07-23T01:40:14.916Z,66.90
2023-07-23T01:42:46.545Z,66.77
2023-07-23T01:45:15.118Z,67.15
2023-07-23T01:47:43.148Z,67.05
2023-07-23T01:50:11.156Z,67.10
2023-07-23T01:52:39.124Z,66.97
2023-07-23T01:55:14.087Z,66.88
2023-07-23T01:57:41.977Z,67.20
2023-07-23T02:00:10.713Z,66.89
2023-07-23T02:02:48.005Z,66.93
2023-07-23T02:05:20.326Z,66.86
2023-07-23T02:07:48.342Z,66.85
2023-07-23T02:10:19.419Z,66.94
2023-07-23T02:12:47.727Z,67.03
2023-07-23T02:15:15.808Z,66.97
2023-07-23T02:17:43.865Z,66.67
2023-07-23T02:20:12.831Z,66.62
2023-07-23T02:22:40.972Z,66.67
2023-07-23T02:25:09.405Z,66.60
2023-07-23T02:27:38.256Z,66.43
2023-07-23T02:30:07.040Z,66.52
2023-07-23T02:32:35.117Z,66.68
2023-07-23T02:35:03.650Z,66.64
2023-07-23T02:37:31.648Z,66.35
2023-07-23T02:39:59.707Z,66.60
2023-07-23T02:42:27.897Z,66.63
2023-07-23T02:44:56.001Z,66.69
2023-07-23T02:47:23.841Z,66.62
2023-07-23T02:49:55.760Z,66.45
2023-07-23T02:52:24.714Z,66.33
2023-07-23T02:54:52.743Z,66.46
2023-07-23T02:57:20.599Z,66.35
2023-07-23T02:59:48.653Z,66.10
2023-07-23T03:02:16.596Z,66.21
2023-07-23T03:04:45.249Z,66.09
2023-07-23T03:07:13.184Z,66.42
2023-07-23T03:09:41.043Z,66.14
2023-07-23T03:12:15.191Z,66.32
2023-07-23T03:14:43.599Z,66.30
2023-07-23T03:17:11.487Z,66.13
2023-07-23T03:19:39.463Z,66.06
2023-07-23T03:22:07.427Z,65.91
2023-07-23T03:24:42.880Z,66.07
2023-07-23T03:27:11.032Z,66.07
2023-07-23T03:29:38.868Z,66.08
2023-07-23T03:32:07.454Z,66.02
2023-07-23T03:34:35.636Z,66.01
2023-07-23T03:37:03.555Z,66.14
2023-07-23T03:39:32.337Z,65.94
2023-07-23T03:42:07.829Z,66.16
2023-07-23T03:44:39.705Z,66.16
2023-07-23T03:47:16.020Z,66.14
2023-07-23T03:49:44.659Z,66.24
2023-07-23T03:52:13.216Z,66.45
2023-07-23T03:54:41.268Z,66.43
2023-07-23T03:57:09.185Z,66.27
2023-07-23T03:59:40.880Z,66.15
2023-07-23T04:02:09.773Z,66.22
2023-07-23T04:04:39.429Z,66.16
2023-07-23T04:07:08.691Z,65.90
2023-07-23T04:09:36.598Z,66.06
2023-07-23T04:12:04.615Z,65.99
2023-07-23T04:14:33.247Z,66.05
2023-07-23T04:17:01.225Z,65.85
2023-07-23T04:19:29.125Z,65.84
2023-07-23T04:21:57.680Z,65.71
2023-07-23T04:24:25.659Z,65.77
2023-07-23T04:26:54.802Z,65.40
2023-07-23T04:29:26.653Z,65.17
2023-07-23T04:31:54.650Z,65.49
2023-07-23T04:34:28.824Z,65.38
2023-07-23T04:37:03.879Z,65.31
2023-07-23T04:39:31.846Z,65.52
2023-07-23T04:41:59.727Z,65.35
2023-07-23T04:44:28.348Z,65.19
2023-07-23T04:46:56.223Z,65.09
2023-07-23T04:49:23.986Z,64.65
2023-07-23T04:51:51.887Z,64.13
2023-07-23T04:54:19.780Z,64.52
2023-07-23T04:56:47.763Z,64.32
2023-07-23T04:59:15.578Z,64.10
2023-07-23T05:01:43.557Z,64.07
2023-07-23T05:04:11.615Z,64.24
2023-07-23T05:06:39.638Z,63.90
2023-07-23T05:09:07.831Z,64.09
2023-07-23T05:11:35.780Z,63.91
2023-07-23T05:14:03.688Z,63.82
2023-07-23T05:16:31.695Z,63.75
2023-07-23T05:18:59.583Z,63.45
2023-07-23T05:21:27.750Z,63.25
2023-07-23T05:23:56.059Z,63.01
2023-07-23T05:26:24.061Z,62.17
2023-07-23T05:28:51.970Z,62.11
2023-07-23T05:31:20.332Z,62.48
2023-07-23T05:33:48.236Z,62.17
2023-07-23T05:36:16.107Z,61.20
2023-07-23T05:38:48.131Z,61.33
2023-07-23T05:41:16.084Z,61.29
2023-07-23T05:43:43.992Z,61.89
2023-07-23T05:46:14.352Z,60.66
2023-07-23T05:48:42.420Z,60.63
2023-07-23T05:51:10.464Z,60.48
2023-07-23T05:53:38.409Z,59.63
2023-07-23T05:56:06.636Z,60.46
2023-07-23T05:58:34.552Z,59.37
2023-07-23T06:01:04.858Z,59.63
2023-07-23T06:03:47.992Z,60.08
2023-07-23T06:06:20.798Z,58.97
2023-07-23T06:08:48.919Z,58.81
2023-07-23T06:11:17.182Z,58.80
2023-07-23T06:13:45.150Z,58.89
2023-07-23T06:16:13.243Z,58.58
2023-07-23T06:18:41.216Z,58.84
2023-07-23T06:21:15.705Z,58.89
2023-07-23T06:23:49.719Z,57.39
2023-07-23T06:26:17.648Z,58.06
2023-07-23T06:28:45.503Z,58.72
2023-07-23T06:31:14.825Z,57.17
2023-07-23T06:33:43.003Z,57.37
2023-07-23T06:36:11.124Z,57.70
2023-07-23T06:38:39.212Z,55.85
2023-07-23T06:41:07.961Z,55.71
2023-07-23T06:43:35.844Z,56.23
2023-07-23T06:46:03.843Z,56.50
2023-07-23T06:48:32.073Z,56.08
2023-07-23T06:51:00.260Z,55.69
2023-07-23T06:53:28.253Z,55.87
2023-07-23T06:56:05.506Z,55.33
2023-07-23T06:58:35.916Z,55.18
2023-07-23T07:01:05.281Z,54.56
2023-07-23T07:03:33.845Z,55.75
2023-07-23T07:06:02.465Z,55.05
2023-07-23T07:08:36.444Z,53.64
2023-07-23T07:11:11.540Z,54.41
2023-07-23T07:13:46.549Z,53.28
2023-07-23T07:16:18.393Z,54.13
2023-07-23T07:18:46.903Z,52.68
2023-07-23T07:21:15.202Z,52.79
2023-07-23T07:23:43.103Z,51.90
2023-07-23T07:26:11.091Z,51.77
2023-07-23T07:28:39.060Z,52.24
2023-07-23T07:31:07.189Z,52.49
2023-07-23T07:33:35.045Z,52.12
2023-07-23T07:36:03.926Z,52.35
2023-07-23T07:38:31.911Z,51.91
2023-07-23T07:41:00.042Z,51.50
2023-07-23T07:43:28.488Z,51.61
2023-07-23T07:46:01.538Z,50.53
2023-07-23T07:48:38.967Z,49.85
2023-07-23T07:51:12.510Z,47.44
2023-07-23T07:53:46.276Z,46.73
2023-07-23T07:56:19.049Z,46.49
2023-07-23T07:58:50.734Z,47.29
2023-07-23T08:01:24.057Z,47.08
2023-07-23T08:03:53.028Z,45.87
2023-07-23T08:06:26.074Z,46.56
2023-07-23T08:08:57.694Z,46.36
2023-07-23T08:11:26.806Z,46.92
2023-07-23T08:13:56.831Z,47.02
2023-07-23T08:16:25.296Z,46.00
2023-07-23T08:18:53.637Z,45.39
2023-07-23T08:21:22.060Z,46.10
2023-07-23T08:23:54.778Z,46.32
2023-07-23T08:26:27.184Z,44.94
2023-07-23T08:29:04.191Z,46.39
2023-07-23T08:31:34.067Z,46.73
2023-07-23T08:34:04.959Z,45.63
2023-07-23T08:36:33.032Z,46.15
2023-07-23T08:39:01.166Z,45.81
2023-07-23T08:42:01.302Z,46.15
2023-07-23T08:44:48.194Z,46.61
2023-07-23T08:47:16.895Z,46.68
2023-07-23T08:49:44.856Z,46.93
2023-07-23T08:52:13.870Z,47.14
2023-07-23T08:54:42.996Z,46.82
2023-07-23T08:57:11.577Z,46.49
2023-07-23T08:59:40.836Z,47.12
2023-07-23T09:02:16.409Z,47.47
2023-07-23T09:04:44.289Z,48.12
2023-07-23T09:07:12.978Z,48.97
2023-07-23T09:09:40.979Z,49.29
2023-07-23T09:12:09.433Z,49.39
2023-07-23T09:14:45.442Z,49.58
2023-07-23T09:17:21.643Z,50.16
2023-07-23T09:19:49.767Z,50.98
2023-07-23T09:22:24.637Z,51.41
2023-07-23T09:25:00.664Z,51.41
2023-07-23T09:27:39.047Z,51.54
2023-07-23T09:30:08.193Z,51.56
2023-07-23T09:32:36.176Z,51.52
2023-07-23T09:35:04.537Z,51.93
2023-07-23T09:37:34.592Z,52.06
2023-07-23T09:40:03.247Z,51.70
2023-07-23T09:42:31.382Z,51.93
2023-07-23T09:45:02.685Z,51.73
2023-07-23T09:47:31.116Z,51.49
2023-07-23T09:49:59.788Z,51.44
2023-07-23T09:52:36.135Z,51.61
2023-07-23T09:55:05.603Z,51.91
2023-07-23T09:57:36.120Z,52.06
2023-07-23T10:00:05.840Z,52.33
2023-07-23T10:02:41.277Z,52.14
2023-07-23T10:05:11.623Z,51.85
2023-07-23T10:07:40.613Z,51.53
2023-07-23T10:10:09.368Z,51.09
2023-07-23T10:12:38.354Z,50.88
2023-07-23T10:15:09.394Z,50.97
2023-07-23T10:17:49.033Z,50.60
2023-07-23T10:20:19.446Z,50.88
2023-07-23T10:22:54.255Z,50.27
2023-07-23T10:25:39.326Z,50.26
2023-07-23T10:28:11.121Z,49.85
2023-07-23T10:30:39.309Z,49.15
2023-07-23T10:33:10.568Z,49.36
2023-07-23T10:35:59.793Z,48.76
2023-07-23T10:38:41.766Z,48.81
2023-07-23T10:41:10.006Z,48.46
2023-07-23T10:43:43.905Z,48.50
2023-07-23T10:46:21.757Z,48.24
2023-07-23T10:48:56.695Z,47.04
2023-07-23T10:51:26.700Z,46.80
2023-07-23T10:54:03.791Z,46.80
2023-07-23T10:56:37.098Z,45.36
2023-07-23T10:59:10.299Z,45.34
2023-07-23T11:01:42.307Z,45.62
2023-07-23T11:04:18.073Z,44.92
2023-07-23T11:07:01.904Z,43.89
2023-07-23T11:09:36.288Z,43.28
2023-07-23T11:12:07.385Z,43.77
2023-07-23T11:14:40.419Z,43.32
2023-07-23T11:17:08.395Z,42.99
2023-07-23T11:19:36.408Z,42.94
2023-07-23T11:22:11.014Z,43.01
2023-07-23T11:24:39.060Z,43.18
2023-07-23T11:27:07.359Z,42.96
2023-07-23T11:29:35.887Z,43.13
2023-07-23T11:32:05.330Z,43.54
2023-07-23T11:34:33.988Z,43.13
2023-07-23T11:37:11.385Z,43.14
2023-07-23T11:39:51.799Z,42.59
2023-07-23T11:42:21.668Z,42.93
2023-07-23T11:45:07.213Z,42.16
2023-07-23T11:48:04.772Z,41.83
2023-07-23T11:50:36.215Z,41.51
2023-07-23T11:53:05.553Z,41.45
2023-07-23T11:55:34.230Z,41.67
2023-07-23T11:58:02.341Z,42.10
2023-07-23T12:00:32.950Z,41.93
2023-07-23T12:03:01.341Z,42.13
2023-07-23T12:05:30.708Z,41.93
2023-07-23T12:07:59.933Z,41.10
2023-07-23T12:10:28.163Z,41.60
2023-07-23T12:12:57.265Z,41.40
2023-07-23T12:15:25.205Z,41.69
2023-07-23T12:17:53.583Z,41.85
2023-07-23T12:20:29.841Z,42.06
2023-07-23T12:23:01.314Z,42.24
2023-07-23T12:25:30.875Z,42.26
2023-07-23T12:27:59.101Z,42.39
2023-07-23T12:31:07.440Z,42.64
2023-07-23T12:33:36.286Z,42.75
2023-07-23T12:36:04.997Z,42.96
2023-07-23T12:38:38.210Z,42.83
2023-07-23T12:41:07.743Z,42.94
2023-07-23T12:43:39.967Z,42.70
2023-07-23T12:46:28.557Z,42.84
2023-07-23T12:49:00.125Z,42.88
2023-07-23T12:51:28.976Z,42.38
2023-07-23T12:53:57.189Z,42.62
2023-07-23T12:56:27.820Z,42.91
2023-07-23T12:58:58.915Z,42.33
2023-07-23T13:01:33.938Z,42.80
2023-07-23T13:04:02.239Z,42.13
2023-07-23T13:06:30.981Z,42.00
2023-07-23T13:08:59.770Z,41.59
2023-07-23T13:11:37.942Z,41.75
2023-07-23T13:14:08.622Z,41.81
2023-07-23T13:16:37.177Z,41.69
2023-07-23T13:19:05.378Z,41.58
2023-07-23T13:21:36.625Z,41.54
2023-07-23T13:24:05.412Z,41.35
2023-07-23T13:26:36.611Z,41.35
2023-07-23T13:29:05.146Z,41.31
2023-07-23T13:31:33.470Z,41.17
2023-07-23T13:34:01.849Z,41.16
2023-07-23T13:36:30.756Z,41.14
2023-07-23T13:38:59.322Z,41.32
2023-07-23T13:41:27.636Z,41.34
2023-07-23T13:43:55.663Z,41.16
2023-07-23T13:46:24.000Z,41.17
2023-07-23T13:48:51.944Z,41.06
2023-07-23T13:51:22.279Z,40.87
2023-07-23T13:53:50.641Z,41.31
2023-07-23T13:56:18.900Z,41.22
2023-07-23T13:58:47.620Z,41.43
2023-07-23T14:01:15.856Z,41.47
2023-07-23T14:03:44.479Z,40.97
2023-07-23T14:06:12.910Z,41.52
2023-07-23T14:08:40.965Z,41.43
2023-07-23T14:11:09.385Z,41.31
2023-07-23T14:13:37.612Z,41.57
2023-07-23T14:16:05.619Z,41.58
2023-07-23T14:18:34.430Z,41.81
2023-07-23T14:21:02.398Z,41.78
2023-07-23T14:23:30.684Z,41.48
2023-07-23T14:26:06.265Z,41.57
2023-07-23T14:28:38.663Z,41.54
2023-07-23T14:31:07.434Z,41.47
2023-07-23T14:33:35.743Z,41.49
2023-07-23T14:36:04.863Z,41.65
2023-07-23T14:38:32.917Z,41.72
2023-07-23T14:41:01.319Z,41.42
2023-07-23T14:43:29.594Z,41.58
2023-07-23T14:45:57.996Z,41.49
2023-07-23T14:48:26.031Z,41.73
2023-07-23T14:51:00.853Z,41.88
2023-07-23T14:53:29.476Z,41.99
2023-07-23T14:55:57.393Z,42.08
2023-07-23T14:58:27.210Z,42.11
2023-07-23T15:00:55.495Z,42.27
2023-07-23T15:03:23.576Z,42.69
2023-07-23T15:05:51.757Z,42.67
2023-07-23T15:08:19.780Z,42.82
2023-07-23T15:10:47.654Z,42.87
2023-07-23T15:13:20.410Z,43.06
2023-07-23T15:15:48.465Z,43.05
2023-07-23T15:18:16.821Z,43.19
2023-07-23T15:20:45.069Z,43.46
2023-07-23T15:23:13.286Z,43.70
2023-07-23T15:25:41.798Z,43.73
2023-07-23T15:28:12.033Z,43.66
2023-07-23T15:30:40.137Z,43.74
2023-07-23T15:33:08.504Z,43.69
2023-07-23T15:35:36.440Z,43.55
2023-07-23T15:38:05.670Z,43.63
2023-07-23T15:40:34.809Z,43.63
2023-07-23T15:43:02.848Z,43.49
2023-07-23T15:45:30.727Z,43.41
2023-07-23T15:47:58.835Z,43.25
2023-07-23T15:50:33.292Z,42.80
2023-07-23T15:53:01.325Z,42.77
2023-07-23T15:55:29.120Z,42.71
2023-07-23T15:58:28.011Z,42.46
2023-07-23T16:04:00.250Z,42.77
2023-07-23T16:06:41.140Z,42.69
2023-07-23T16:09:33.931Z,42.86
2023-07-23T16:12:18.918Z,42.56
2023-07-23T16:14:58.238Z,42.66
2023-07-23T16:17:56.518Z,42.78
2023-07-23T16:23:20.910Z,42.69
2023-07-23T16:26:23.514Z,42.85
2023-07-23T16:28:58.410Z,42.99
2023-07-23T16:31:35.702Z,42.93
2023-07-23T16:34:07.280Z,42.95
2023-07-23T16:36:56.242Z,43.13
2023-07-23T16:39:26.536Z,42.97
2023-07-23T16:42:18.081Z,42.84
2023-07-23T16:44:51.065Z,42.97
2023-07-23T16:47:23.597Z,42.92
2023-07-23T16:50:03.236Z,43.24
2023-07-23T16:52:34.537Z,43.35
2023-07-23T16:55:05.566Z,43.41
2023-07-23T16:57:35.961Z,43.42
2023-07-23T17:00:05.052Z,43.53
2023-07-23T17:02:59.627Z,43.71
2023-07-23T17:05:29.883Z,43.87
2023-07-23T17:07:59.025Z,44.03
2023-07-23T17:10:52.392Z,44.10
2023-07-23T17:13:23.096Z,44.24
2023-07-23T17:15:52.211Z,44.22
2023-07-23T17:18:21.400Z,44.45
2023-07-23T17:20:52.043Z,44.66
2023-07-23T17:23:30.028Z,44.77
2023-07-23T17:26:03.099Z,44.75
2023-07-23T17:28:33.537Z,45.01
2023-07-23T17:31:15.668Z,45.68
2023-07-23T17:33:48.632Z,45.84
2023-07-23T17:36:21.008Z,45.94
2023-07-23T17:38:56.920Z,45.92
2023-07-23T17:41:34.709Z,46.23
2023-07-23T17:44:12.997Z,46.94
2023-07-23T17:46:46.062Z,46.84
2023-07-23T17:49:17.728Z,46.99
2023-07-23T17:51:55.154Z,47.40
2023-07-23T17:54:28.006Z,47.47
2023-07-23T17:57:10.622Z,47.60
2023-07-23T17:59:55.660Z,48.03
2023-07-23T18:05:27.302Z,48.25
2023-07-23T18:07:55.337Z,48.68
2023-07-23T18:10:23.739Z,48.92
2023-07-23T18:13:15.371Z,49.10
2023-07-23T18:15:50.795Z,49.49
2023-07-23T18:18:30.125Z,49.80
2023-07-23T18:21:03.186Z,50.24
2023-07-23T18:23:52.920Z,50.28
2023-07-23T18:26:25.747Z,50.31
2023-07-23T18:29:25.523Z,50.54
2023-07-23T18:31:59.460Z,50.68
2023-07-23T18:34:32.695Z,51.12
2023-07-23T18:37:06.864Z,51.70
2023-07-23T18:40:00.279Z,51.77
2023-07-23T18:42:53.792Z,51.99
2023-07-23T18:45:32.181Z,52.01
2023-07-23T18:48:28.616Z,51.98
2023-07-23T18:51:03.154Z,52.07
2023-07-23T18:54:28.580Z,51.95
2023-07-23T18:56:58.781Z,51.82
2023-07-23T18:59:34.927Z,51.97
2023-07-23T19:02:14.476Z,52.03
2023-07-23T19:05:23.592Z,52.46
2023-07-23T19:08:39.920Z,52.50
2023-07-23T19:11:17.326Z,52.23
2023-07-23T19:14:35.975Z,52.79
2023-07-23T19:17:47.946Z,53.66
2023-07-23T19:20:28.627Z,54.20
2023-07-23T19:27:05.722Z,55.86
2023-07-23T19:29:40.469Z,56.28
2023-07-23T19:32:20.416Z,56.05
2023-07-23T19:34:58.937Z,55.76
2023-07-23T19:37:39.598Z,55.96
2023-07-23T19:40:16.076Z,56.22
2023-07-23T19:43:06.244Z,56.37
2023-07-23T19:45:45.982Z,56.83
2023-07-23T19:48:35.401Z,57.23
2023-07-23T19:51:23.232Z,57.40
2023-07-23T19:53:59.399Z,57.71
2023-07-23T19:56:33.367Z,57.75
2023-07-23T19:59:32.888Z,57.90
2023-07-23T20:02:17.971Z,58.07
2023-07-23T20:04:55.965Z,58.23
2023-07-23T20:07:50.563Z,58.15
2023-07-23T20:10:44.250Z,58.37
2023-07-23T20:13:27.322Z,58.27
2023-07-23T20:16:03.334Z,57.87
2023-07-23T20:18:56.660Z,57.89
2023-07-23T20:21:42.397Z,58.32
2023-07-23T20:24:41.405Z,58.46
2023-07-23T20:27:15.879Z,59.00
2023-07-23T20:30:23.109Z,58.70
2023-07-23T20:33:00.976Z,58.41
2023-07-23T20:36:21.743Z,58.53
2023-07-23T20:38:57.856Z,58.58
2023-07-23T20:41:49.949Z,58.10
2023-07-23T20:44:43.793Z,57.54
2023-07-23T20:47:55.895Z,57.79
2023-07-23T20:50:28.681Z,57.88
2023-07-23T20:53:03.096Z,58.02
2023-07-23T20:55:47.761Z,58.24
2023-07-23T20:58:26.759Z,58.20
2023-07-23T21:01:10.318Z,58.16
2023-07-23T21:04:47.290Z,58.49
2023-07-23T21:07:44.688Z,58.65
2023-07-23T21:10:35.869Z,58.56
2023-07-23T21:13:35.152Z,58.83
2023-07-23T21:16:42.126Z,59.00
2023-07-23T21:19:22.276Z,59.36
2023-07-23T21:22:15.489Z,59.22
2023-07-23T21:24:53.878Z,59.28
2023-07-23T21:27:45.506Z,59.12
2023-07-23T21:30:40.287Z,59.00
2023-07-23T21:33:57.557Z,59.18
2023-07-23T21:36:35.851Z,59.23
2023-07-23T21:39:15.014Z,59.38
2023-07-23T21:41:47.325Z,59.52
2023-07-23T21:44:37.826Z,59.56
2023-07-23T21:47:41.385Z,59.64
2023-07-23T21:50:25.591Z,59.90
2023-07-23T21:53:13.474Z,59.94
2023-07-23T21:55:52.302Z,60.13
2023-07-23T21:58:28.411Z,60.18
2023-07-23T22:01:33.482Z,60.14
2023-07-23T22:04:24.841Z,60.14
2023-07-23T22:06:58.013Z,60.11
2023-07-23T22:09:58.437Z,59.95
2023-07-23T22:12:31.820Z,59.90
2023-07-23T22:15:30.805Z,59.87
2023-07-23T22:18:08.829Z,59.87
2023-07-23T22:20:43.130Z,60.02
2023-07-23T22:23:28.277Z,60.23
2023-07-23T22:26:06.146Z,60.12
2023-07-23T22:28:42.602Z,60.27
2023-07-23T22:31:17.579Z,60.32
2023-07-23T22:34:08.689Z,60.32
2023-07-23T22:37:50.460Z,60.40
2023-07-23T22:40:41.589Z,60.56
2023-07-23T22:43:15.357Z,60.65
2023-07-23T22:46:41.166Z,60.78
2023-07-23T22:49:41.093Z,61.04
2023-07-23T22:52:14.081Z,60.79
2023-07-23T22:54:43.649Z,60.60
2023-07-23T22:57:17.566Z,60.50
2023-07-23T22:59:46.870Z,60.59
2023-07-23T23:02:35.036Z,60.52
2023-07-23T23:05:04.080Z,60.71
2023-07-23T23:07:33.731Z,60.80
2023-07-23T23:10:10.508Z,60.76
2023-07-23T23:12:39.072Z,61.05
2023-07-23T23:15:09.146Z,61.01
2023-07-23T23:17:40.114Z,61.11
2023-07-23T23:20:34.615Z,61.47
2023-07-23T23:23:07.246Z,61.37
2023-07-23T23:25:37.208Z,61.68
2023-07-23T23:28:08.267Z,61.72
2023-07-23T23:30:49.469Z,61.82
2023-07-23T23:33:23.172Z,61.81
2023-07-23T23:35:59.783Z,61.89
2023-07-23T23:38:30.186Z,62.00
2023-07-23T23:41:05.246Z,61.95
2023-07-23T23:43:35.668Z,62.24
2023-07-23T23:46:03.792Z,62.02
2023-07-23T23:48:31.994Z,62.18
2023-07-23T23:51:00.227Z,62.47
2023-07-23T23:53:31.633Z,62.43
2023-07-23T23:55:59.632Z,62.54
2023-07-23T23:58:28.552Z,62.78
